Mountain Home, AR (72653)

11:43 AM CST on December 05, 2016 (GMT -0600)
Mallard Point on Lake Norfork | | Change Station

Elev 810 ft 36.39 °N, 92.30 °W | Updated 7 minutes ago

Overcast
Overcast
42.5 °F
Feels Like 42 °F
N
1.0
Wind Variable Wind from SE

Today
High -- | Low -- °F
--% Chance of Precip.
Yesterday
High -- | Low -- °F
Precip. -- in
Pressure 29.99 in
Visibility 10.0 miles
Clouds Overcast 1100 ft
Windchill 42 °F
Dew Point 40 °F
Humidity 91%
Rainfall in
Snow Depth Not available.
7:06 AM 4:54 PM
Waxing Crescent, 33% visible
METAR KBPK 051653Z AUTO 18009KT 10SM OVC011 05/03 A2998 RMK AO2 SLP156 T00500033
Pressure 29.99 in
Visibility 10.0 miles
Clouds Overcast 1100 ft
Windchill 42 °F
Dew Point 40 °F
Humidity 91%
Rainfall in
Snow Depth Not available.
7:06 AM 4:54 PM
Waxing Crescent, 33% visible
METAR KBPK 051653Z AUTO 18009KT 10SM OVC011 05/03 A2998 RMK AO2 SLP156 T00500033

10-Day Weather Forecast

Almanac

Astronomy

Dec. 05, 2016 Rise Set
Actual Time
Civil Twilight
Nautical Twilight
Astronomical Twilight
Moon
Length of Visible Light
Length of Day
Tomorrow will be .
, % of the Moon is Illuminated

Today's Extremes

State Highs State Lows

Community

WunderPhotos

Upload Photos

1,955,845 photos uploaded!

WunderBlog® & News

Nearby

Air Quality

  Air Quality AQ Index Pollutant
Not available.

Snow Depth

Station Depth Elevation

Earthquake Activity

City Distance Mag. Time & Date
Minimum magnitude displayed is 2.5.

Coastal Water Temperatures

Place Temperature

Stations

Nearby Weather Stations

Station Location Temp. Windchill Dew Point Humidity Wind Precip. Elev Updated Type
                   

Watches & Warnings

There are currently no watches in effect.